createdAt,value
2018-11-23T00:00:21.093Z,49.87
2018-11-23T00:02:50.162Z,49.30
2018-11-23T00:05:18.823Z,48.60
2018-11-23T00:07:47.718Z,40.93
2018-11-23T00:10:17.827Z,49.50
2018-11-23T00:12:46.850Z,49.20
2018-11-23T00:15:17.176Z,49.47
2018-11-23T00:17:45.594Z,52.67
2018-11-23T00:20:15.235Z,58.70
2018-11-23T00:22:43.761Z,57.03
2018-11-23T00:25:14.042Z,47.17
2018-11-23T00:27:42.703Z,53.27
2018-11-23T00:30:15.350Z,43.87
2018-11-23T00:32:44.206Z,44.03
2018-11-23T00:35:14.552Z,45.93
2018-11-23T00:37:43.489Z,49.73
2018-11-23T00:40:14.109Z,51.00
2018-11-23T00:42:43.115Z,45.03
2018-11-23T00:45:13.004Z,52.73
2018-11-23T00:47:42.196Z,53.23
2018-11-23T00:50:12.551Z,48.10
2018-11-23T00:52:41.967Z,57.83
2018-11-23T00:55:13.234Z,47.87
2018-11-23T00:57:41.700Z,46.03
2018-11-23T01:00:13.327Z,49.53
2018-11-23T01:02:42.428Z,46.80
2018-11-23T01:05:12.147Z,48.50
2018-11-23T01:07:41.730Z,50.63
2018-11-23T01:10:12.206Z,50.70
2018-11-23T01:12:40.809Z,52.90
2018-11-23T01:15:09.998Z,52.67
2018-11-23T01:17:38.935Z,54.50
2018-11-23T01:20:10.808Z,47.63
2018-11-23T01:22:39.864Z,48.47
2018-11-23T01:25:09.703Z,53.37
2018-11-23T01:27:38.647Z,49.47
2018-11-23T01:30:11.233Z,58.20
2018-11-23T01:32:39.809Z,45.13
2018-11-23T01:35:08.429Z,48.03
2018-11-23T01:37:36.822Z,61.40
2018-11-23T01:40:05.816Z,50.30
2018-11-23T01:42:34.250Z,39.50
2018-11-23T01:45:02.680Z,49.20
2018-11-23T01:47:31.119Z,45.20
2018-11-23T01:49:59.554Z,40.90
2018-11-23T01:52:28.184Z,48.47
2018-11-23T01:54:56.702Z,38.83
2018-11-23T01:57:25.086Z,47.70
2018-11-23T01:59:53.568Z,41.57
2018-11-23T02:02:22.279Z,44.70
2018-11-23T02:04:50.723Z,42.00
2018-11-23T02:07:19.020Z,40.97
2018-11-23T02:09:47.509Z,42.23
2018-11-23T02:12:15.995Z,43.00
2018-11-23T02:14:47.439Z,62.03
2018-11-23T02:17:16.113Z,43.23
2018-11-23T02:19:44.630Z,45.10
2018-11-23T02:22:13.047Z,46.00
2018-11-23T02:24:41.488Z,46.70
2018-11-23T02:27:09.980Z,50.13
2018-11-23T02:29:38.558Z,35.00
2018-11-23T02:32:07.282Z,53.23
2018-11-23T02:34:35.748Z,48.90
2018-11-23T02:37:04.247Z,46.60
2018-11-23T02:39:32.690Z,59.77
2018-11-23T02:42:01.222Z,47.43
2018-11-23T02:44:29.707Z,51.03
2018-11-23T02:46:58.156Z,53.90
2018-11-23T02:49:26.529Z,36.30
2018-11-23T02:51:54.945Z,50.47
2018-11-23T02:54:23.477Z,44.47
2018-11-23T02:56:51.954Z,46.97
2018-11-23T02:59:23.965Z,45.50
2018-11-23T03:01:49.052Z,57.77
2018-11-23T03:04:17.807Z,52.17
2018-11-23T03:06:46.440Z,55.30
2018-11-23T03:09:14.903Z,47.57
2018-11-23T03:11:43.321Z,41.87
2018-11-23T03:14:11.749Z,41.67
2018-11-23T03:16:40.323Z,47.13
2018-11-23T03:19:09.089Z,50.00
2018-11-23T03:21:37.760Z,45.97
2018-11-23T03:24:06.278Z,44.27
2018-11-23T03:26:34.786Z,43.33
2018-11-23T03:29:03.226Z,42.43
2018-11-23T03:31:32.923Z,48.30
2018-11-23T03:34:01.350Z,45.67
2018-11-23T03:36:29.916Z,50.07
2018-11-23T03:38:58.361Z,46.17
2018-11-23T03:41:26.873Z,44.93
2018-11-23T03:43:58.276Z,47.27
2018-11-23T03:46:26.790Z,50.83
2018-11-23T03:48:55.705Z,42.27
2018-11-23T03:51:24.132Z,49.80
2018-11-23T03:53:52.656Z,45.30
2018-11-23T03:56:21.095Z,50.10
2018-11-23T03:58:49.505Z,50.37
2018-11-23T04:01:17.850Z,46.80
2018-11-23T04:03:46.250Z,49.40
2018-11-23T04:06:14.638Z,52.30
2018-11-23T04:08:43.140Z,60.87
2018-11-23T04:11:11.698Z,43.87
2018-11-23T04:13:40.052Z,58.27
2018-11-23T04:16:08.454Z,43.90
2018-11-23T04:18:36.923Z,52.40
2018-11-23T04:21:06.029Z,48.27
2018-11-23T04:23:34.510Z,53.73
2018-11-23T04:26:03.020Z,55.67
2018-11-23T04:28:31.440Z,55.60
2018-11-23T04:31:00.403Z,48.33
2018-11-23T04:33:29.014Z,51.60
2018-11-23T04:36:00.316Z,49.73
2018-11-23T04:38:28.706Z,62.47
2018-11-23T04:40:57.585Z,43.93
2018-11-23T04:43:26.015Z,51.97
2018-11-23T04:45:54.533Z,56.07
2018-11-23T04:48:22.964Z,60.80
2018-11-23T04:50:51.296Z,55.80
2018-11-23T04:53:19.688Z,54.57
2018-11-23T04:55:48.065Z,54.70
2018-11-23T04:58:16.523Z,59.73
2018-11-23T05:00:45.039Z,46.17
2018-11-23T05:03:13.417Z,54.77
2018-11-23T05:05:41.835Z,68.33
2018-11-23T05:08:10.406Z,57.17
2018-11-23T05:10:38.867Z,61.93
2018-11-23T05:13:07.404Z,52.07
2018-11-23T05:15:36.000Z,60.00
2018-11-23T05:18:05.391Z,70.47
2018-11-23T05:20:33.891Z,59.07
2018-11-23T05:23:02.410Z,62.67
2018-11-23T05:25:30.879Z,66.77
2018-11-23T05:27:59.242Z,68.80
2018-11-23T05:30:28.141Z,62.40
2018-11-23T05:32:56.580Z,54.33
2018-11-23T05:35:25.012Z,60.50
2018-11-23T05:37:53.481Z,45.03
2018-11-23T05:40:22.062Z,47.73
2018-11-23T05:42:50.491Z,61.10
2018-11-23T05:45:20.350Z,46.60
2018-11-23T05:47:48.999Z,45.70
2018-11-23T05:50:20.391Z,58.00
2018-11-23T05:52:48.896Z,52.77
2018-11-23T05:55:17.261Z,60.53
2018-11-23T05:57:45.712Z,57.93
2018-11-23T06:00:17.949Z,57.30
2018-11-23T06:02:46.350Z,58.47
2018-11-23T06:05:14.880Z,53.60
2018-11-23T06:07:43.648Z,54.50
2018-11-23T06:10:14.891Z,66.07
2018-11-23T06:12:43.429Z,54.63
2018-11-23T06:15:14.615Z,50.30
2018-11-23T06:17:43.441Z,62.93
2018-11-23T06:20:15.067Z,56.67
2018-11-23T06:22:44.797Z,61.40
2018-11-23T06:25:20.882Z,54.90
2018-11-23T06:27:51.054Z,46.80
2018-11-23T06:30:19.947Z,45.93
2018-11-23T06:32:57.873Z,45.93
2018-11-23T06:35:27.516Z,51.17
2018-11-23T06:37:56.665Z,57.73
2018-11-23T06:40:25.197Z,48.90
2018-11-23T06:42:53.597Z,53.70
2018-11-23T06:45:22.085Z,54.23
2018-11-23T06:47:50.820Z,56.10
2018-11-23T06:50:19.480Z,50.47
2018-11-23T06:52:47.984Z,53.63
2018-11-23T06:55:17.185Z,62.27
2018-11-23T06:57:45.621Z,53.77
2018-11-23T07:00:16.731Z,56.57
2018-11-23T07:02:45.705Z,58.87
2018-11-23T07:05:14.409Z,52.13
2018-11-23T07:07:42.815Z,61.43
2018-11-23T07:10:12.018Z,58.93
2018-11-23T07:12:41.416Z,57.70
2018-11-23T07:15:11.802Z,63.90
2018-11-23T07:17:40.729Z,70.00
2018-11-23T07:20:11.162Z,74.87
2018-11-23T07:22:40.352Z,73.40
2018-11-23T07:25:10.119Z,76.83
2018-11-23T07:27:38.747Z,69.60
2018-11-23T07:30:13.535Z,86.63
2018-11-23T07:32:42.226Z,79.37
2018-11-23T07:35:10.851Z,80.77
2018-11-23T07:37:39.312Z,67.20
2018-11-23T07:40:17.647Z,134.63
2018-11-23T07:42:46.177Z,89.47
2018-11-23T07:45:14.598Z,86.53
2018-11-23T07:47:43.312Z,81.67
2018-11-23T07:50:12.844Z,76.93
2018-11-23T07:52:41.395Z,69.70
2018-11-23T07:55:10.961Z,70.07
2018-11-23T07:57:39.467Z,49.70
2018-11-23T08:00:11.566Z,56.43
2018-11-23T08:02:40.260Z,46.03
2018-11-23T08:05:10.406Z,45.53
2018-11-23T08:07:39.036Z,39.50
2018-11-23T08:10:11.234Z,43.10
2018-11-23T08:12:40.906Z,42.83
2018-11-23T08:15:12.079Z,37.50
2018-11-23T08:17:40.841Z,35.63
2018-11-23T08:20:11.977Z,42.43
2018-11-23T08:22:40.714Z,33.33
2018-11-23T08:25:10.331Z,32.00
2018-11-23T08:27:39.496Z,40.50
2018-11-23T08:30:16.104Z,36.17
2018-11-23T08:32:45.260Z,34.77
2018-11-23T08:35:14.407Z,37.07
2018-11-23T08:37:43.968Z,43.07
2018-11-23T08:40:14.541Z,36.43
2018-11-23T08:42:43.572Z,35.70
2018-11-23T08:45:14.100Z,34.53
2018-11-23T08:47:42.607Z,39.80
2018-11-23T08:50:14.887Z,39.20
2018-11-23T08:52:43.512Z,33.43
2018-11-23T08:55:12.868Z,35.87
2018-11-23T08:57:41.904Z,32.07
2018-11-23T09:00:17.141Z,33.80
2018-11-23T09:02:46.925Z,29.90
2018-11-23T09:05:16.210Z,31.20
2018-11-23T09:07:45.899Z,31.70
2018-11-23T09:10:18.423Z,34.23
2018-11-23T09:12:50.743Z,34.40
2018-11-23T09:15:19.582Z,32.17
2018-11-23T09:17:48.575Z,34.57
2018-11-23T09:20:17.687Z,33.73
2018-11-23T09:22:46.417Z,32.97
2018-11-23T09:25:19.161Z,36.27
2018-11-23T09:27:47.573Z,33.07
2018-11-23T09:30:19.006Z,33.17
2018-11-23T09:32:53.931Z,31.23
2018-11-23T09:35:22.960Z,28.00
2018-11-23T09:37:51.804Z,31.10
2018-11-23T09:40:21.792Z,33.60
2018-11-23T09:42:50.639Z,33.50
2018-11-23T09:45:22.032Z,34.67
2018-11-23T09:47:51.896Z,31.13
2018-11-23T09:50:21.530Z,32.20
2018-11-23T09:52:51.378Z,33.30
2018-11-23T09:55:20.413Z,32.13
2018-11-23T09:57:48.947Z,29.67
2018-11-23T10:00:20.255Z,37.27
2018-11-23T10:02:49.612Z,39.00
2018-11-23T10:05:18.684Z,37.27
2018-11-23T10:07:48.617Z,36.23
2018-11-23T10:10:18.063Z,32.27
2018-11-23T10:12:46.791Z,39.03
2018-11-23T10:15:16.762Z,40.03
2018-11-23T10:17:45.237Z,33.10
2018-11-23T10:20:15.793Z,34.50
2018-11-23T10:22:44.546Z,37.07
2018-11-23T10:25:15.279Z,44.67
2018-11-23T10:27:44.282Z,35.27
2018-11-23T10:30:15.852Z,33.40
2018-11-23T10:32:45.290Z,36.80
2018-11-23T10:35:13.637Z,33.73
2018-11-23T10:37:43.033Z,38.70
2018-11-23T10:40:14.348Z,35.93
2018-11-23T10:42:43.040Z,37.30
2018-11-23T10:45:14.722Z,29.87
2018-11-23T10:47:43.213Z,34.07
2018-11-23T10:50:14.348Z,38.03
2018-11-23T10:52:42.829Z,36.57
2018-11-23T10:55:13.841Z,35.90
2018-11-23T10:57:42.323Z,33.83
2018-11-23T11:00:16.677Z,37.03
2018-11-23T11:02:49.707Z,33.37
2018-11-23T11:05:22.561Z,32.77
2018-11-23T11:07:51.064Z,34.20
2018-11-23T11:10:19.545Z,35.30
2018-11-23T11:12:48.333Z,39.10
2018-11-23T11:15:16.820Z,41.43
2018-11-23T11:17:45.310Z,39.73
2018-11-23T11:20:13.649Z,41.13
2018-11-23T11:22:42.093Z,37.20
2018-11-23T11:25:11.148Z,36.70
2018-11-23T11:27:40.277Z,40.70
2018-11-23T11:30:13.352Z,41.97
2018-11-23T11:32:42.539Z,36.17
2018-11-23T11:35:11.635Z,39.67
2018-11-23T11:37:40.170Z,34.87
2018-11-23T11:40:10.777Z,34.90
2018-11-23T11:42:39.554Z,36.07
2018-11-23T11:45:09.910Z,33.07
2018-11-23T11:47:38.418Z,36.63
2018-11-23T11:50:08.599Z,41.30
2018-11-23T11:52:38.645Z,45.23
2018-11-23T11:55:08.761Z,41.97
2018-11-23T11:57:37.236Z,42.17
2018-11-23T12:00:07.693Z,32.90
2018-11-23T12:02:36.180Z,48.07
2018-11-23T12:05:05.864Z,39.03
2018-11-23T12:07:34.309Z,39.83
2018-11-23T12:10:02.863Z,34.67
2018-11-23T12:12:31.362Z,40.00
2018-11-23T12:14:59.687Z,37.93
2018-11-23T12:17:28.133Z,41.07
2018-11-23T12:19:56.488Z,35.83
2018-11-23T12:22:24.957Z,34.63
2018-11-23T12:24:53.878Z,35.90
2018-11-23T12:27:22.284Z,41.60
2018-11-23T12:29:50.650Z,41.40
2018-11-23T12:32:19.235Z,32.93
2018-11-23T12:34:47.729Z,40.03
2018-11-23T12:37:16.120Z,40.90
2018-11-23T12:39:44.512Z,40.27
2018-11-23T12:42:12.937Z,36.20
2018-11-23T12:44:42.757Z,34.00
2018-11-23T12:47:11.238Z,37.43
2018-11-23T12:49:39.924Z,32.67
2018-11-23T12:52:08.244Z,43.27
2018-11-23T12:54:36.579Z,34.93
2018-11-23T12:57:05.747Z,43.90
2018-11-23T12:59:34.195Z,49.53
2018-11-23T13:02:05.328Z,50.40
2018-11-23T13:04:33.702Z,45.33
2018-11-23T13:07:03.467Z,39.73
2018-11-23T13:09:31.904Z,34.43
2018-11-23T13:12:00.906Z,35.97
2018-11-23T13:14:29.570Z,35.90
2018-11-23T13:16:58.927Z,35.43
2018-11-23T13:19:28.011Z,36.33
2018-11-23T13:21:57.718Z,36.97
2018-11-23T13:24:26.180Z,31.50
2018-11-23T13:26:55.076Z,42.73
2018-11-23T13:29:23.407Z,38.00
2018-11-23T13:31:52.586Z,38.30
2018-11-23T13:34:22.547Z,34.13
2018-11-23T13:36:51.119Z,36.63
2018-11-23T13:39:19.524Z,41.83
2018-11-23T13:41:47.972Z,38.00
2018-11-23T13:44:16.366Z,29.53
2018-11-23T13:46:44.805Z,37.97
2018-11-23T13:49:13.283Z,39.13
2018-11-23T13:51:41.759Z,32.57
2018-11-23T13:54:10.133Z,29.50
2018-11-23T13:56:38.537Z,38.43
2018-11-23T13:59:07.060Z,41.83
2018-11-23T14:01:35.491Z,37.80
2018-11-23T14:04:03.920Z,32.87
2018-11-23T14:06:32.497Z,31.23
2018-11-23T14:09:00.915Z,31.53
2018-11-23T14:11:29.423Z,34.03
2018-11-23T14:13:57.879Z,43.77
2018-11-23T14:16:26.261Z,33.77
2018-11-23T14:18:54.697Z,43.97
2018-11-23T14:21:23.129Z,36.50
2018-11-23T14:23:51.602Z,37.23
2018-11-23T14:26:20.015Z,37.03
2018-11-23T14:28:48.600Z,33.47
2018-11-23T14:31:17.389Z,38.73
2018-11-23T14:33:45.928Z,54.27
2018-11-23T14:36:14.389Z,36.60
2018-11-23T14:38:43.102Z,48.83
2018-11-23T14:41:11.507Z,38.90
2018-11-23T14:43:40.143Z,49.63
2018-11-23T14:46:08.625Z,39.30
2018-11-23T14:48:37.080Z,37.90
2018-11-23T14:51:05.590Z,39.90
2018-11-23T14:53:34.003Z,44.47
2018-11-23T14:56:02.412Z,40.13
2018-11-23T14:58:30.872Z,38.93
2018-11-23T15:00:59.217Z,36.53
2018-11-23T15:03:27.652Z,35.67
2018-11-23T15:05:56.064Z,41.17
2018-11-23T15:08:26.661Z,37.80
2018-11-23T15:10:56.741Z,42.03
2018-11-23T15:13:25.145Z,51.30
2018-11-23T15:15:53.742Z,45.90
2018-11-23T15:18:23.456Z,44.83
2018-11-23T15:20:52.792Z,55.33
2018-11-23T15:23:21.396Z,42.50
2018-11-23T15:25:49.853Z,45.33
2018-11-23T15:28:18.344Z,54.13
2018-11-23T15:30:47.208Z,45.03
2018-11-23T15:33:17.017Z,42.07
2018-11-23T15:35:45.940Z,47.73
2018-11-23T15:38:17.125Z,37.87
2018-11-23T15:40:45.631Z,50.27
2018-11-23T15:43:15.166Z,45.67
2018-11-23T15:45:43.605Z,45.07
2018-11-23T15:48:12.475Z,57.83
2018-11-23T15:50:42.121Z,50.13
2018-11-23T15:53:12.156Z,39.83
2018-11-23T15:55:41.192Z,44.20
2018-11-23T15:58:11.041Z,48.03
2018-11-23T16:00:42.083Z,45.00
2018-11-23T16:03:11.737Z,46.63
2018-11-23T16:05:40.628Z,48.40
2018-11-23T16:08:11.996Z,62.17
2018-11-23T16:10:40.607Z,46.00
2018-11-23T16:13:11.271Z,54.23
2018-11-23T16:15:38.648Z,39.20
2018-11-23T16:18:07.809Z,39.93
2018-11-23T16:20:42.981Z,53.43
2018-11-23T16:23:15.967Z,46.83
2018-11-23T16:25:46.217Z,47.90
2018-11-23T16:28:14.928Z,45.53
2018-11-23T16:30:45.519Z,47.70
2018-11-23T16:33:15.963Z,39.47
2018-11-23T16:35:44.530Z,37.63
2018-11-23T16:38:15.160Z,40.07
2018-11-23T16:40:45.596Z,41.20
2018-11-23T16:43:14.792Z,42.60
2018-11-23T16:45:44.054Z,45.80
2018-11-23T16:48:13.378Z,37.93
2018-11-23T16:50:43.143Z,44.90
2018-11-23T16:53:11.787Z,44.30
2018-11-23T16:55:40.279Z,39.23
2018-11-23T16:58:10.768Z,46.97
2018-11-23T17:00:41.386Z,40.30
2018-11-23T17:03:12.057Z,39.27
2018-11-23T17:05:43.978Z,44.77
2018-11-23T17:08:13.371Z,40.43
2018-11-23T17:10:42.613Z,43.73
2018-11-23T17:13:11.397Z,39.93
2018-11-23T17:15:40.143Z,46.30
2018-11-23T17:18:08.956Z,41.53
2018-11-23T17:20:38.692Z,44.80
2018-11-23T17:23:09.064Z,43.23
2018-11-23T17:25:37.569Z,44.03
2018-11-23T17:28:07.412Z,41.37
2018-11-23T17:30:37.071Z,44.30
2018-11-23T17:33:09.153Z,44.70
2018-11-23T17:35:39.008Z,46.27
2018-11-23T17:38:07.921Z,50.67
2018-11-23T17:40:38.170Z,42.03
2018-11-23T17:43:06.869Z,50.70
2018-11-23T17:45:35.506Z,53.80
2018-11-23T17:48:04.870Z,46.17
2018-11-23T17:50:35.113Z,56.40
2018-11-23T17:53:03.755Z,58.90
2018-11-23T17:55:32.236Z,56.27
2018-11-23T17:58:01.738Z,50.60
2018-11-23T18:00:38.859Z,55.40
2018-11-23T18:03:04.141Z,49.73
2018-11-23T18:05:33.835Z,49.63
2018-11-23T18:08:03.023Z,48.93
2018-11-23T18:10:33.835Z,59.93
2018-11-23T18:13:03.654Z,59.73
2018-11-23T18:15:34.189Z,76.50
2018-11-23T18:18:04.181Z,94.93
2018-11-23T18:20:33.165Z,61.83
2018-11-23T18:23:05.166Z,58.10
2018-11-23T18:25:36.399Z,53.57
2018-11-23T18:28:05.556Z,62.17
2018-11-23T18:30:35.766Z,65.70
2018-11-23T18:33:08.152Z,67.67
2018-11-23T18:35:36.926Z,65.53
2018-11-23T18:38:05.775Z,68.83
2018-11-23T18:40:37.394Z,75.73
2018-11-23T18:43:03.776Z,66.17
2018-11-23T18:45:33.001Z,70.53
2018-11-23T18:48:01.594Z,60.10
2018-11-23T18:50:30.449Z,63.00
2018-11-23T18:52:59.028Z,54.00
2018-11-23T18:55:28.672Z,63.43
2018-11-23T18:57:57.100Z,62.27
2018-11-23T19:00:25.720Z,57.17
2018-11-23T19:02:54.351Z,59.03
2018-11-23T19:05:24.558Z,57.47
2018-11-23T19:07:53.009Z,59.93
2018-11-23T19:10:22.239Z,56.03
2018-11-23T19:12:51.021Z,54.83
2018-11-23T19:15:25.090Z,68.13
2018-11-23T19:17:49.676Z,72.37
2018-11-23T19:20:19.112Z,66.30
2018-11-23T19:22:49.400Z,58.47
2018-11-23T19:25:18.067Z,68.83
2018-11-23T19:27:46.498Z,54.63
2018-11-23T19:30:27.724Z,68.67
2018-11-23T19:32:49.112Z,60.13
2018-11-23T19:35:17.588Z,69.27
2018-11-23T19:37:46.065Z,79.07
2018-11-23T19:40:15.662Z,74.17
2018-11-23T19:42:45.453Z,59.77
2018-11-23T19:45:16.082Z,64.90
2018-11-23T19:47:44.743Z,73.17
2018-11-23T19:50:17.269Z,69.60
2018-11-23T19:52:46.033Z,75.60
2018-11-23T19:55:15.414Z,67.33
2018-11-23T19:57:43.893Z,63.20
2018-11-23T20:00:20.642Z,67.00
2018-11-23T20:02:49.141Z,70.67
2018-11-23T20:05:17.645Z,71.43
2018-11-23T20:07:47.346Z,96.50
2018-11-23T20:10:16.863Z,66.97
2018-11-23T20:12:50.245Z,74.10
2018-11-23T20:15:19.329Z,68.40
2018-11-23T20:17:48.138Z,67.17
2018-11-23T20:20:17.475Z,72.40
2018-11-23T20:22:47.491Z,64.67
2018-11-23T20:25:17.305Z,59.40
2018-11-23T20:27:47.989Z,70.63
2018-11-23T20:30:18.007Z,71.37
2018-11-23T20:32:47.271Z,70.30
2018-11-23T20:35:16.869Z,73.37
2018-11-23T20:37:45.482Z,78.37
2018-11-23T20:40:15.725Z,61.60
2018-11-23T20:42:44.385Z,63.07
2018-11-23T20:45:13.594Z,54.50
2018-11-23T20:47:42.362Z,55.43
2018-11-23T20:50:13.654Z,65.23
2018-11-23T20:52:42.091Z,64.97
2018-11-23T20:55:13.779Z,58.33
2018-11-23T20:57:42.405Z,53.17
2018-11-23T21:00:13.156Z,59.30
2018-11-23T21:02:41.788Z,64.50
2018-11-23T21:05:11.862Z,64.30
2018-11-23T21:07:40.479Z,59.67
2018-11-23T21:10:20.005Z,59.40
2018-11-23T21:12:43.057Z,65.37
2018-11-23T21:15:14.931Z,62.50
2018-11-23T21:17:43.863Z,59.90
2018-11-23T21:20:12.472Z,57.50
2018-11-23T21:22:41.036Z,76.10
2018-11-23T21:25:10.516Z,68.53
2018-11-23T21:27:40.280Z,59.63
2018-11-23T21:30:12.662Z,61.33
2018-11-23T21:32:41.708Z,76.37
2018-11-23T21:35:11.470Z,63.33
2018-11-23T21:37:39.912Z,87.73
2018-11-23T21:40:12.608Z,73.37
2018-11-23T21:42:44.384Z,67.80
2018-11-23T21:45:16.789Z,77.97
2018-11-23T21:47:48.051Z,75.13
2018-11-23T21:50:24.628Z,76.77
2018-11-23T21:52:45.983Z,79.07
2018-11-23T21:55:21.119Z,81.40
2018-11-23T21:57:49.899Z,77.50
2018-11-23T22:00:18.356Z,86.33
2018-11-23T22:02:47.096Z,84.83
2018-11-23T22:05:15.659Z,87.20
2018-11-23T22:07:44.222Z,81.00
2018-11-23T22:10:15.694Z,69.83
2018-11-23T22:12:44.170Z,66.03
2018-11-23T22:15:17.177Z,64.77
2018-11-23T22:17:45.959Z,59.27
2018-11-23T22:20:16.193Z,59.10
2018-11-23T22:22:44.734Z,59.23
2018-11-23T22:25:14.318Z,60.60
2018-11-23T22:27:43.198Z,74.47
2018-11-23T22:30:15.075Z,64.90
2018-11-23T22:32:43.758Z,55.40
2018-11-23T22:35:12.731Z,55.80
2018-11-23T22:37:41.120Z,62.60
2018-11-23T22:40:11.519Z,62.73
2018-11-23T22:42:43.345Z,63.23
2018-11-23T22:45:14.690Z,61.73
2018-11-23T22:47:43.227Z,72.90
2018-11-23T22:50:17.575Z,60.53
2018-11-23T22:52:46.215Z,54.73
2018-11-23T22:55:15.310Z,59.97
2018-11-23T22:57:43.799Z,68.80
2018-11-23T23:00:20.056Z,79.00
2018-11-23T23:02:49.023Z,61.67
2018-11-23T23:05:17.823Z,64.57
2018-11-23T23:07:46.590Z,55.10
2018-11-23T23:10:15.053Z,57.93
2018-11-23T23:12:43.431Z,57.90
2018-11-23T23:15:12.300Z,57.50
2018-11-23T23:17:41.291Z,59.67
2018-11-23T23:20:12.180Z,52.10
2018-11-23T23:22:43.664Z,60.00
2018-11-23T23:25:12.818Z,69.17
2018-11-23T23:27:41.327Z,74.27
2018-11-23T23:30:11.867Z,63.60
2018-11-23T23:32:40.636Z,66.07
2018-11-23T23:35:10.202Z,68.13
2018-11-23T23:37:38.856Z,64.50
2018-11-23T23:40:09.557Z,56.57
2018-11-23T23:42:38.049Z,55.87
2018-11-23T23:45:10.008Z,58.23
2018-11-23T23:47:38.545Z,73.60
2018-11-23T23:50:09.389Z,65.03
2018-11-23T23:52:37.848Z,72.03
2018-11-23T23:55:07.494Z,66.93
2018-11-23T23:57:35.964Z,69.30
